Aérodrome :
LOGIN :

S'inscrire | Disclaimer

   EN    FR    IT 

 










Légende :    VFR   VFR Marginal   IFR   IFR Intensif   IFR Très Intensif
Visi : 
Plafond : 
>= 8 km
>= 3000ft
5 à 8 km
1000 à 3000 ft
1500m à 5 km
500 à 1000 ft
800 à 1500m
200 à 500 ft
< 800m
< 200 ft
Symboles :   Orages  Brouillard  Fortes neiges  Fortes précipitations  Vent > 20 kt
SIGMETs :   Divers  Orages  Givrage  Turbulence  Onde Orograph.  Cendres Volcan.







- Altitude de l'aérodrome : 127 ft
- Code IATA : JTR


LGSR - Santorini

DERNIER METAR :
  • 170450Z 34015KT 9999 FEW025 26/19 Q1009

METARs EXPIRÉS :
  • 170420Z 35013KT 9999 FEW025 25/18 Q1009
  • 170350Z 32013KT CAVOK 24/18 Q1009
  • 170320Z 32010KT CAVOK 24/18 Q1009
  • 170250Z 32010KT CAVOK 24/18 Q1009
  • 170220Z 30010KT 9999 FEW025 24/17 Q1009

TAF TAF LGSR
Valide du 17 à 00h jusqu'au 18 à 00h UTC


162300Z 1700/1724 33015KT 9999 FEW025
Pas de NOTAMs connus pour ce terrain.



MET'MAP, la Météo Aéronautique d'un coup d'oeil ! - Copyright ORBIFLY Décembre 2007 - Disclaimer

ORBIFLY MET'MAP TEAM :

Programmation & Développement : Alexandra Zaïnal
Conception & Développement : Baudouin d'Aumeries
Co-Programmation & Développement : Marc-Olivier Méhu
Soutien technique & logistique : Manuel Goepfert

Contact : metmap@orbifly.com




SOURCES & CREDITS :

   NOAA